Villanueva, Argentina
Current Conditions -  °F | °C
As of 2:00 PM on Friday 19 Dec 2014 (Local Time) from SAEZ Reporting Station
Clear Clear  
Wind Chill: 93°   Ceiling: Unl
Heat Index: 93°   Visibility: 6mi
Dew Point: 59°   Wind: 18mph
Humidity: 32%   Direction: 310°NW
Pressure: 29.62"   Gusts: NA
Location:  35.67°S, 58.43°W
Report Text: SAEZ 191700Z 31016KT 280V350 CAVOK 34/15 Q1003
Loading
Personal Weather Stations






























Interactive Weather Map New forecast layout! Learn more

10-Day Weather Forecast

Advertisements
Track Severe Weather on mobile